Time;durP1;ratioP1;P1;durP2;ratioP2;P2;SDS_P1;SDS_P2;PMS_P1;PMS_P2;Temp;Humidity;BMP_temperature;BMP_pressure;BME280_temperature;BME280_humidity;BME280_pressure;Samples;Min_cycle;Max_cycle;Signal;HPM_P1;HPM_P2
2022/10/31 00:00:17;;;;;;;;;;;;;;;16.86;87.66;100897.09;5013831;28;1368;-67
2022/10/31 00:02:42;;;;;;;;;;;;;;;16.84;87.82;100891.09;5013896;28;901;-66
2022/10/31 00:05:07;;;;;;;;;;;;;;;16.84;87.62;100888.31;5013855;28;964;-67
2022/10/31 00:07:32;;;;;;;;;;;;;;;16.83;87.68;100889.44;5013692;28;991;-66
2022/10/31 00:09:57;;;;;;;;;;;;;;;16.83;87.59;100893.03;5013755;28;1201;-66
2022/10/31 00:12:22;;;;;;;;;;;;;;;16.83;87.45;100892.22;5013831;28;1039;-65
2022/10/31 00:14:48;;;;;;;;;;;;;;;16.82;86.80;100896.94;5013693;28;999;-66
2022/10/31 00:17:13;;;;;;;;;;;;;;;16.82;86.75;100896.09;5013426;28;1898;-66
2022/10/31 00:19:38;;;;;;;;;;;;;;;16.81;87.12;100902.75;5013566;28;1272;-66
2022/10/31 00:22:03;;;;;;;;;;;;;;;16.81;86.71;100906.34;5013600;28;897;-66
2022/10/31 00:24:28;;;;;;;;;;;;;;;16.79;87.26;100914.13;5013685;28;1063;-66
2022/10/31 00:26:53;;;;;;;;;;;;;;;16.79;86.77;100908.59;5013192;28;1042;-66
2022/10/31 00:29:18;;;;;;;;;;;;;;;16.79;86.97;100918.84;5013576;28;1599;-66
2022/10/31 00:31:44;;;;;;;;;;;;;;;16.79;87.26;100922.41;5013521;28;1048;-66
2022/10/31 00:34:09;;;;;;;;;;;;;;;16.79;87.45;100922.41;5013549;28;845;-66
2022/10/31 00:36:34;;;;;;;;;;;;;;;16.77;86.79;100927.44;5013197;28;1975;-66
2022/10/31 00:39:00;;;;;;;;;;;;;;;16.77;87.27;100926.63;5013439;28;1213;-66
2022/10/31 00:41:25;;;;;;;;;;;;;;;16.76;86.72;100936.84;5013440;28;857;-66
2022/10/31 00:43:50;;;;;;;;;;;;;;;16.76;86.71;100945.16;5013414;28;844;-66
2022/10/31 00:46:16;;;;;;;;;;;;;;;16.77;86.88;100935.72;5013168;28;920;-66
2022/10/31 00:48:41;;;;;;;;;;;;;;;16.76;86.80;100939.63;5013098;28;1285;-65
2022/10/31 00:51:06;;;;;;;;;;;;;;;16.75;86.71;100932.47;5013543;28;853;-66
2022/10/31 00:53:31;;;;;;;;;;;;;;;16.75;86.66;100939.97;5013366;28;912;-66
2022/10/31 00:55:56;;;;;;;;;;;;;;;16.75;87.32;100954.59;5012961;28;1898;-66
2022/10/31 00:58:22;;;;;;;;;;;;;;;16.75;86.60;100945.47;5013252;28;905;-65
2022/10/31 01:00:56;;;;;;;;;;;;;;;16.75;87.36;100953.78;5013140;28;1186;-66
2022/10/31 01:03:25;;;;;;;;;;;;;;;16.75;87.61;100962.06;5013177;28;955;-66
2022/10/31 01:06:10;;;;;;;;;;;;;;;16.75;87.08;100951.00;5013056;28;877;-66
2022/10/31 01:08:36;;;;;;;;;;;;;;;16.72;87.45;100949.69;5012550;28;1207;-65
2022/10/31 01:11:12;;;;;;;;;;;;;;;16.73;86.33;100950.50;5013228;28;972;-65
2022/10/31 01:13:38;;;;;;;;;;;;;;;16.71;86.80;100953.56;5013099;28;896;-66
2022/10/31 01:16:04;;;;;;;;;;;;;;;16.71;86.55;100947.22;5012778;28;1963;-66
2022/10/31 01:18:29;;;;;;;;;;;;;;;16.70;86.58;100957.47;5013104;28;1181;-66
2022/10/31 01:21:02;;;;;;;;;;;;;;;16.71;87.27;100959.09;5012999;28;1233;-66
2022/10/31 01:23:27;;;;;;;;;;;;;;;16.71;86.61;100950.81;5013050;28;893;-66
2022/10/31 01:26:04;;;;;;;;;;;;;;;16.70;86.81;100953.88;5012760;28;980;-66
2022/10/31 01:28:29;;;;;;;;;;;;;;;16.71;86.96;100949.97;5012913;28;833;-66
2022/10/31 01:30:55;;;;;;;;;;;;;;;16.69;86.42;100955.81;5012893;28;1302;-66
2022/10/31 01:33:20;;;;;;;;;;;;;;;16.68;86.46;100958.88;5012953;28;980;-66
2022/10/31 01:35:45;;;;;;;;;;;;;;;16.68;87.11;100956.13;5012857;28;852;-66
2022/10/31 01:38:10;;;;;;;;;;;;;;;16.67;86.48;100960.03;5011613;28;1890;-66
2022/10/31 01:40:35;;;;;;;;;;;;;;;16.66;86.59;100956.47;5015738;28;1301;-66
2022/10/31 01:43:01;;;;;;;;;;;;;;;16.67;87.38;100954.50;5016472;28;1066;-65
2022/10/31 01:45:26;;;;;;;;;;;;;;;16.67;87.14;100951.75;5016488;28;999;-66
2022/10/31 01:47:51;;;;;;;;;;;;;;;16.67;87.43;100954.50;5016277;28;848;-66
2022/10/31 01:50:31;;;;;;;;;;;;;;;16.66;86.34;100963.94;5016229;28;1288;-66
2022/10/31 01:52:57;;;;;;;;;;;;;;;16.64;86.89;100947.66;5016375;28;1047;-67
2022/10/31 01:55:32;;;;;;;;;;;;;;;16.63;86.75;100960.66;5016258;28;829;-66
2022/10/31 01:57:59;;;;;;;;;;;;;;;16.63;86.54;100955.13;5015892;28;1898;-66
2022/10/31 02:00:24;;;;;;;;;;;;;;;16.63;86.86;100954.31;5016121;28;1291;-66
2022/10/31 02:02:50;;;;;;;;;;;;;;;16.63;86.43;100959.81;5016183;28;929;-66
2022/10/31 02:05:18;;;;;;;;;;;;;;;16.63;87.24;100962.59;5016072;28;984;-66
2022/10/31 02:07:47;;;;;;;;;;;;;;;16.62;87.21;100959.00;5015799;28;1014;-66
2022/10/31 02:10:12;;;;;;;;;;;;;;;16.61;86.83;100960.13;5015955;28;1293;-67
2022/10/31 02:12:38;;;;;;;;;;;;;;;16.60;86.35;100958.47;5015953;28;1103;-66
2022/10/31 02:15:04;;;;;;;;;;;;;;;16.61;86.99;100970.38;5015958;28;996;-66
2022/10/31 02:17:29;;;;;;;;;;;;;;;16.60;86.67;100958.47;5015549;28;1898;-66
2022/10/31 02:20:01;;;;;;;;;;;;;;;16.60;87.25;100961.22;5015710;28;1286;-66
2022/10/31 02:22:31;;;;;;;;;;;;;;;16.58;87.18;100963.50;5015890;28;872;-67
2022/10/31 02:25:14;;;;;;;;;;;;;;;16.58;87.12;100960.75;5015739;28;984;-66
2022/10/31 02:27:58;;;;;;;;;;;;;;;16.58;87.08;100960.75;5015513;28;916;-66
2022/10/31 02:30:25;;;;;;;;;;;;;;;16.58;87.08;100962.69;5015543;28;1317;-66
2022/10/31 02:32:58;;;;;;;;;;;;;;;16.57;86.44;100963.81;5015538;28;900;-66
2022/10/31 02:35:32;;;;;;;;;;;;;;;16.57;86.63;100963.81;5015795;28;899;-66
2022/10/31 02:38:02;;;;;;;;;;;;;;;16.57;87.01;100961.88;5015181;28;1894;-66
2022/10/31 02:40:32;;;;;;;;;;;;;;;16.56;86.47;100956.63;5015425;28;1217;-66
2022/10/31 02:43:18;;;;;;;;;;;;;;;16.55;86.90;100969.63;5015446;28;1075;-66
2022/10/31 02:46:05;;;;;;;;;;;;;;;16.56;86.73;100953.88;5015378;28;995;-66
2022/10/31 02:48:32;;;;;;;;;;;;;;;16.54;87.01;100950.59;5015347;28;1054;-66
2022/10/31 02:50:59;;;;;;;;;;;;;;;16.54;86.60;100945.06;5015053;28;838;-66
2022/10/31 02:53:24;;;;;;;;;;;;;;;16.54;86.32;100950.59;5014100;28;1404;-66
2022/10/31 02:55:58;;;;;;;;;;;;;;;16.53;87.06;100954.47;5014856;28;1003;-66
2022/10/31 02:58:25;;;;;;;;;;;;;;;16.52;87.17;100947.31;5014974;28;1890;-66
2022/10/31 03:01:17;;;;;;;;;;;;;;;16.52;86.62;100941.78;5015002;28;1199;-66
2022/10/31 03:03:42;;;;;;;;;;;;;;;16.51;86.82;100946.50;5015065;28;904;-66
2022/10/31 03:06:10;;;;;;;;;;;;;;;16.51;87.02;100949.25;5014667;28;878;-67
2022/10/31 03:08:41;;;;;;;;;;;;;;;16.51;86.46;100942.91;5014984;28;1195;-66
2022/10/31 03:11:07;;;;;;;;;;;;;;;16.50;86.63;100953.16;5014843;28;852;-66
2022/10/31 03:13:45;;;;;;;;;;;;;;;16.50;86.95;100947.63;5014864;28;972;-66
2022/10/31 03:16:20;;;;;;;;;;;;;;;16.50;86.81;100953.16;5014498;28;1902;-66
2022/10/31 03:18:55;;;;;;;;;;;;;;;16.50;87.07;100953.16;5014609;28;1303;-67
2022/10/31 03:21:23;;;;;;;;;;;;;;;16.49;86.26;100951.53;5014776;28;924;-66
2022/10/31 03:23:50;;;;;;;;;;;;;;;16.48;86.94;100957.38;5014261;28;920;-66
2022/10/31 03:26:15;;;;;;;;;;;;;;;16.49;87.04;100954.31;5014348;28;1078;-66
2022/10/31 03:28:45;;;;;;;;;;;;;;;16.48;87.01;100957.38;5013290;28;1209;-66
2022/10/31 03:31:11;;;;;;;;;;;;;;;16.47;87.16;100958.50;5014581;28;823;-67
2022/10/31 03:33:39;;;;;;;;;;;;;;;16.46;86.67;100968.72;5014511;28;932;-66
2022/10/31 03:36:05;;;;;;;;;;;;;;;16.46;86.45;100965.13;5014184;28;1902;-66
2022/10/31 03:38:31;;;;;;;;;;;;;;;16.46;86.52;100977.00;5014352;28;860;-66
2022/10/31 03:41:00;;;;;;;;;;;;;;;16.46;87.14;100987.25;5014196;28;864;-66
2022/10/31 03:43:28;;;;;;;;;;;;;;;16.45;86.80;100994.72;5014334;28;805;-66
2022/10/31 03:45:54;;;;;;;;;;;;;;;16.45;87.02;100991.13;5014021;28;1003;-66
2022/10/31 03:48:20;;;;;;;;;;;;;;;16.44;86.49;100992.25;5014183;28;884;-66
2022/10/31 03:50:45;;;;;;;;;;;;;;;16.44;86.31;100997.78;5057887;23;3712;-63
2022/10/31 03:53:14;;;;;;;;;;;;;;;16.43;86.23;100993.38;5053866;28;876;-64
2022/10/31 03:55:42;;;;;;;;;;;;;;;16.41;86.75;100996.47;5053821;28;976;-63
2022/10/31 03:58:13;;;;;;;;;;;;;;;16.42;87.01;100988.97;5053590;28;1975;-63
2022/10/31 04:00:40;;;;;;;;;;;;;;;16.42;86.96;100994.50;5053883;28;1240;-63
2022/10/31 04:03:14;;;;;;;;;;;;;;;16.42;86.59;100986.22;5053415;28;979;-64
2022/10/31 04:05:40;;;;;;;;;;;;;;;16.41;86.32;100993.72;5053669;28;1019;-65
2022/10/31 04:08:08;;;;;;;;;;;;;;;16.40;86.11;100989.31;5053309;28;804;-65
2022/10/31 04:10:35;;;;;;;;;;;;;;;16.41;86.30;100990.13;5053533;28;1182;-65
2022/10/31 04:13:06;;;;;;;;;;;;;;;16.41;86.80;100984.59;5053541;28;1062;-64
2022/10/31 04:15:32;;;;;;;;;;;;;;;16.39;86.09;100993.19;5053503;28;966;-64
2022/10/31 04:17:59;;;;;;;;;;;;;;;16.38;86.33;100990.72;5053251;28;2005;-65
2022/10/31 04:20:35;;;;;;;;;;;;;;;16.38;86.66;100990.72;5053278;28;1282;-64
2022/10/31 04:23:00;;;;;;;;;;;;;;;16.39;86.84;100984.09;5053414;28;817;-65
2022/10/31 04:25:26;;;;;;;;;;;;;;;16.38;86.65;100996.25;5053378;28;895;-65
2022/10/31 04:27:51;;;;;;;;;;;;;;;16.37;86.70;100992.66;5053288;28;785;-65
2022/10/31 04:30:16;;;;;;;;;;;;;;;16.37;87.07;100991.84;5052030;28;1200;-65
2022/10/31 04:32:41;;;;;;;;;;;;;;;16.36;86.82;100988.28;5033362;28;785;-65
2022/10/31 04:35:06;;;;;;;;;;;;;;;16.35;86.51;100989.38;5033348;28;884;-65
2022/10/31 04:37:31;;;;;;;;;;;;;;;16.36;86.96;100988.28;5032983;28;1959;-65
2022/10/31 04:39:57;;;;;;;;;;;;;;;16.36;86.29;100987.44;5033357;28;1290;-65
2022/10/31 04:42:22;;;;;;;;;;;;;;;16.35;86.25;100989.38;5033255;28;971;-65
2022/10/31 04:44:47;;;;;;;;;;;;;;;16.35;86.80;100985.81;5033222;28;988;-65
2022/10/31 04:47:12;;;;;;;;;;;;;;;16.35;86.15;100989.38;5033085;28;1100;-65
2022/10/31 04:49:37;;;;;;;;;;;;;;;16.34;86.31;100992.47;5032916;28;1286;-65
2022/10/31 04:52:02;;;;;;;;;;;;;;;16.33;86.24;100986.13;5033153;28;984;-65
2022/10/31 04:54:28;;;;;;;;;;;;;;;16.33;86.20;100993.59;5033107;28;983;-65
2022/10/31 04:56:53;;;;;;;;;;;;;;;16.33;86.76;100993.59;5032779;28;1897;-65
2022/10/31 04:59:18;;;;;;;;;;;;;;;16.32;86.74;100998.31;5032978;28;1338;-65
2022/10/31 05:01:43;;;;;;;;;;;;;;;16.31;86.42;100993.09;5033110;28;769;-65
2022/10/31 05:04:08;;;;;;;;;;;;;;;16.31;86.80;100987.56;5033027;28;972;-65
2022/10/31 05:06:33;;;;;;;;;;;;;;;16.31;86.65;100993.91;5032790;28;936;-67
2022/10/31 05:08:58;;;;;;;;;;;;;;;16.32;86.24;100986.44;5033021;28;1211;-66
2022/10/31 05:11:24;;;;;;;;;;;;;;;16.30;86.36;100978.47;5032955;28;806;-67
2022/10/31 05:13:49;;;;;;;;;;;;;;;16.31;86.31;100995.84;5033151;28;963;-66
2022/10/31 05:16:14;;;;;;;;;;;;;;;16.32;86.48;100991.97;5036629;28;1898;-67
2022/10/31 05:18:39;;;;;;;;;;;;;;;16.32;86.09;100997.50;5036722;28;939;-66
2022/10/31 05:21:04;;;;;;;;;;;;;;;16.31;86.42;100993.09;5036934;28;1192;-66
2022/10/31 05:23:29;;;;;;;;;;;;;;;16.33;86.68;101001.91;5036731;28;920;-67
2022/10/31 05:25:54;;;;;;;;;;;;;;;16.30;86.26;100989.50;5036550;28;1027;-66
2022/10/31 05:28:20;;;;;;;;;;;;;;;16.30;86.87;100999.72;5036803;28;837;-66
2022/10/31 05:30:45;;;;;;;;;;;;;;;16.29;86.80;100987.88;5036609;28;1199;-65
2022/10/31 05:33:10;;;;;;;;;;;;;;;16.29;86.81;100996.16;5036635;28;980;-65
2022/10/31 05:35:35;;;;;;;;;;;;;;;16.28;86.71;100991.75;5036451;28;808;-65
2022/10/31 05:38:00;;;;;;;;;;;;;;;16.27;86.34;100995.63;5036151;28;1918;-65
2022/10/31 05:40:26;;;;;;;;;;;;;;;16.25;86.15;100998.69;5036526;28;1189;-65
2022/10/31 05:42:52;;;;;;;;;;;;;;;16.25;86.43;101001.47;5036439;28;888;-65
2022/10/31 05:45:18;;;;;;;;;;;;;;;16.26;86.75;100999.50;5036301;28;1856;-65
2022/10/31 05:47:52;;;;;;;;;;;;;;;16.24;86.38;100999.84;5036028;28;916;-65
2022/10/31 05:50:17;;;;;;;;;;;;;;;16.24;86.24;100991.56;5036185;28;1281;-65
2022/10/31 05:52:43;;;;;;;;;;;;;;;16.24;86.29;100994.31;5036167;28;1034;-65
2022/10/31 05:55:08;;;;;;;;;;;;;;;16.22;86.30;100987.47;5036310;28;850;-65
2022/10/31 05:57:33;;;;;;;;;;;;;;;16.20;86.80;100984.19;5035726;28;1902;-65
2022/10/31 05:59:59;;;;;;;;;;;;;;;16.21;86.35;100985.81;5036056;28;1263;-65
2022/10/31 06:02:24;;;;;;;;;;;;;;;16.20;86.23;100985.00;5035930;28;1042;-65
2022/10/31 06:04:49;;;;;;;;;;;;;;;16.18;86.49;100987.25;5036089;28;881;-65
2022/10/31 06:07:14;;;;;;;;;;;;;;;16.19;86.49;100979.78;5035870;28;928;-65
2022/10/31 06:09:39;;;;;;;;;;;;;;;16.17;86.58;100977.31;5035929;28;1212;-65
2022/10/31 06:12:04;;;;;;;;;;;;;;;16.18;86.33;100983.66;5036002;28;797;-65
2022/10/31 06:14:29;;;;;;;;;;;;;;;16.17;86.41;100988.34;5035930;28;968;-65
2022/10/31 06:16:55;;;;;;;;;;;;;;;16.16;86.32;100989.47;5035443;28;1965;-65
2022/10/31 06:19:20;;;;;;;;;;;;;;;16.17;86.55;100996.66;5035551;28;1294;-65
2022/10/31 06:21:45;;;;;;;;;;;;;;;16.16;86.85;100999.75;5035753;28;846;-65
2022/10/31 06:24:10;;;;;;;;;;;;;;;16.16;86.46;100997.75;5035699;28;1002;-65
2022/10/31 06:26:36;;;;;;;;;;;;;;;16.16;86.52;100994.22;5034957;28;1047;-65
2022/10/31 06:29:01;;;;;;;;;;;;;;;16.15;86.30;100992.56;5035633;28;1223;-65
2022/10/31 06:31:26;;;;;;;;;;;;;;;16.13;86.40;100987.34;5035571;28;975;-65
2022/10/31 06:33:51;;;;;;;;;;;;;;;16.13;86.77;100987.34;5035508;28;890;-65
2022/10/31 06:36:16;;;;;;;;;;;;;;;16.13;86.80;100990.13;5035130;28;1965;-65
2022/10/31 06:38:41;;;;;;;;;;;;;;;16.12;86.33;100985.72;5035463;28;984;-65
2022/10/31 06:41:06;;;;;;;;;;;;;;;16.13;86.79;100997.56;5035347;28;1196;-65
2022/10/31 06:43:32;;;;;;;;;;;;;;;16.11;86.69;100992.34;5035363;28;1000;-65
2022/10/31 06:45:57;;;;;;;;;;;;;;;16.11;86.27;100984.06;5035015;28;992;-65
2022/10/31 06:48:22;;;;;;;;;;;;;;;16.10;86.21;100990.72;5035312;28;822;-64
2022/10/31 06:50:47;;;;;;;;;;;;;;;16.11;86.78;100991.53;5035018;28;1277;-64
2022/10/31 06:53:14;;;;;;;;;;;;;;;16.10;86.13;100995.41;5035362;28;794;-65
2022/10/31 06:55:39;;;;;;;;;;;;;;;16.10;86.62;101006.47;5035173;28;914;-65
2022/10/31 06:58:04;;;;;;;;;;;;;;;16.11;86.46;101002.56;5034820;28;1902;-65
2022/10/31 07:00:30;;;;;;;;;;;;;;;16.10;86.70;101004.53;5034932;28;1205;-65
2022/10/31 07:03:03;;;;;;;;;;;;;;;16.10;86.37;101010.03;5034842;28;900;-65
2022/10/31 07:05:29;;;;;;;;;;;;;;;16.10;86.75;101017.50;5035021;28;861;-65
2022/10/31 07:07:55;;;;;;;;;;;;;;;16.09;86.42;101011.16;5034678;28;789;-65
2022/10/31 07:10:20;;;;;;;;;;;;;;;16.08;86.12;101009.53;5034869;28;1200;-65
2022/10/31 07:12:45;;;;;;;;;;;;;;;16.09;86.40;101010.34;5034851;28;1007;-65
2022/10/31 07:15:10;;;;;;;;;;;;;;;16.08;86.64;101006.75;5034682;28;733;-65
2022/10/31 07:17:35;;;;;;;;;;;;;;;16.07;86.66;101005.16;5034219;28;1898;-65
2022/10/31 07:20:00;;;;;;;;;;;;;;;16.07;86.49;101007.09;5034472;28;1191;-65
2022/10/31 07:22:31;;;;;;;;;;;;;;;16.06;86.75;101005.44;5034478;28;789;-65
2022/10/31 07:24:56;;;;;;;;;;;;;;;16.06;86.60;101014.56;5034521;28;984;-65
2022/10/31 07:27:22;;;;;;;;;;;;;;;16.07;86.64;101020.91;5034265;28;794;-65
2022/10/31 07:29:47;;;;;;;;;;;;;;;16.06;86.15;101011.78;5034292;28;1299;-65
2022/10/31 07:32:12;;;;;;;;;;;;;;;16.06;86.30;101019.25;5034375;28;1035;-64
2022/10/31 07:34:37;;;;;;;;;;;;;;;16.07;86.54;101018.13;5034488;28;873;-64
2022/10/31 07:37:02;;;;;;;;;;;;;;;16.07;86.23;101020.91;5033334;28;1894;-64
2022/10/31 07:39:27;;;;;;;;;;;;;;;16.06;86.39;101025.59;5034155;28;1260;-64
2022/10/31 07:41:52;;;;;;;;;;;;;;;16.06;86.43;101024.78;5034172;28;797;-64
2022/10/31 07:44:18;;;;;;;;;;;;;;;16.06;86.43;101025.59;5034149;28;889;-64
2022/10/31 07:46:43;;;;;;;;;;;;;;;16.06;86.30;101027.53;5032812;28;743;-64
2022/10/31 07:49:08;;;;;;;;;;;;;;;16.06;86.19;101024.78;5033838;28;1290;-63
2022/10/31 07:51:33;;;;;;;;;;;;;;;16.05;86.13;101021.19;5034066;28;1034;-64
2022/10/31 07:53:58;;;;;;;;;;;;;;;16.05;86.27;101026.72;5033955;28;761;-64
2022/10/31 07:56:23;;;;;;;;;;;;;;;16.06;86.37;101027.53;5033622;28;1878;-64
2022/10/31 07:58:48;;;;;;;;;;;;;;;16.07;86.55;101026.41;5033877;28;802;-64
2022/10/31 08:01:14;;;;;;;;;;;;;;;16.05;85.95;101023.97;5033784;28;1156;-63
2022/10/31 08:03:39;;;;;;;;;;;;;;;16.06;86.18;101022.03;5034147;28;838;-64
2022/10/31 08:06:04;;;;;;;;;;;;;;;16.05;86.43;101015.69;5033545;28;987;-64
2022/10/31 08:08:29;;;;;;;;;;;;;;;16.06;86.36;101014.56;5033739;28;1223;-64
2022/10/31 08:10:55;;;;;;;;;;;;;;;16.07;86.22;101018.13;5033614;28;1215;-64
2022/10/31 08:13:20;;;;;;;;;;;;;;;16.06;86.50;101011.78;5033709;28;860;-64
2022/10/31 08:15:50;;;;;;;;;;;;;;;16.05;86.08;101021.19;5033302;28;777;-64
2022/10/31 08:18:15;;;;;;;;;;;;;;;16.06;85.79;101013.72;5033388;28;1953;-64
2022/10/31 08:20:40;;;;;;;;;;;;;;;16.07;86.25;101012.63;5033581;28;1197;-64
2022/10/31 08:23:06;;;;;;;;;;;;;;;16.06;85.96;101011.78;5033535;28;858;-64
2022/10/31 08:25:32;;;;;;;;;;;;;;;16.06;86.23;101009.03;5033478;28;830;-64
2022/10/31 08:27:57;;;;;;;;;;;;;;;16.07;86.00;101016.19;5033145;28;1050;-64
2022/10/31 08:30:24;;;;;;;;;;;;;;;16.06;85.85;101006.28;5033221;28;1302;-64
2022/10/31 08:33:02;;;;;;;;;;;;;;;16.06;86.07;101006.28;5033282;28;887;-64
2022/10/31 08:35:28;;;;;;;;;;;;;;;16.07;86.34;101005.16;5033475;28;766;-64
2022/10/31 08:37:54;;;;;;;;;;;;;;;16.07;85.91;101002.38;5032938;28;1951;-64
2022/10/31 08:40:19;;;;;;;;;;;;;;;16.08;85.99;101004.00;5033228;28;1216;-64
2022/10/31 08:42:44;;;;;;;;;;;;;;;16.09;86.05;100988.25;5033223;28;872;-64
2022/10/31 08:45:09;;;;;;;;;;;;;;;16.10;85.92;100992.66;5033391;28;909;-64
2022/10/31 08:47:35;;;;;;;;;;;;;;;16.10;85.75;100993.47;5032854;28;984;-64
2022/10/31 08:50:00;;;;;;;;;;;;;;;16.08;86.08;100995.72;5032896;28;1197;-64
2022/10/31 08:52:26;;;;;;;;;;;;;;;16.09;85.80;100999.28;5033242;28;1035;-64
2022/10/31 08:54:51;;;;;;;;;;;;;;;16.09;85.70;100997.34;5033147;28;865;-64
2022/10/31 08:57:16;;;;;;;;;;;;;;;16.10;86.05;100995.41;5032757;28;1957;-64
2022/10/31 08:59:41;;;;;;;;;;;;;;;16.13;85.56;100998.41;5033009;28;1446;-64
2022/10/31 09:02:07;;;;;;;;;;;;;;;16.05;85.10;100999.09;5032994;28;858;-64
2022/10/31 09:04:32;;;;;;;;;;;;;;;15.92;84.97;100999.88;5033022;28;996;-64
2022/10/31 09:06:57;;;;;;;;;;;;;;;15.85;84.48;100994.78;5032669;28;1034;-64
2022/10/31 09:09:22;;;;;;;;;;;;;;;15.82;84.18;100992.59;5033041;28;1312;-64
2022/10/31 09:11:47;;;;;;;;;;;;;;;15.78;84.49;100986.06;5033241;28;831;-64
2022/10/31 09:14:13;;;;;;;;;;;;;;;15.78;84.32;100994.34;5032819;28;872;-64
2022/10/31 09:16:38;;;;;;;;;;;;;;;15.76;84.43;100991.06;5032614;28;1965;-64
2022/10/31 09:19:03;;;;;;;;;;;;;;;15.77;84.40;100992.72;5032830;28;1220;-64
2022/10/31 09:21:28;;;;;;;;;;;;;;;15.78;84.34;100993.53;5032895;28;1050;-64
2022/10/31 09:23:53;;;;;;;;;;;;;;;15.77;84.22;100991.88;5032484;28;790;-64
2022/10/31 09:26:19;;;;;;;;;;;;;;;15.76;84.49;100981.97;5032671;28;806;-64
2022/10/31 09:28:44;;;;;;;;;;;;;;;15.79;84.35;100989.66;5032801;28;1006;-64
2022/10/31 09:31:09;;;;;;;;;;;;;;;15.79;84.25;100987.72;5032881;28;1270;-64
2022/10/31 09:33:35;;;;;;;;;;;;;;;15.81;84.24;100981.88;5032824;28;860;-64
2022/10/31 09:36:00;;;;;;;;;;;;;;;15.77;84.65;100981.66;5032513;28;998;-64
2022/10/31 09:38:25;;;;;;;;;;;;;;;15.79;84.18;100978.59;5032670;28;1949;-64
2022/10/31 09:40:50;;;;;;;;;;;;;;;15.82;84.37;100972.50;5032477;28;1204;-64
2022/10/31 09:43:18;;;;;;;;;;;;;;;15.80;84.03;100970.03;5032624;28;731;-64
2022/10/31 09:46:09;;;;;;;;;;;;;;;15.77;84.17;100970.63;5032766;28;853;-64
2022/10/31 09:48:38;;;;;;;;;;;;;;;15.79;84.20;100962.03;5032265;28;1110;-64
2022/10/31 09:51:18;;;;;;;;;;;;;;;15.81;84.71;100963.38;5056668;23;1953;-66
2022/10/31 09:53:46;;;;;;;;;;;;;;;15.53;84.18;100917.50;5032615;28;860;-66
2022/10/31 09:56:13;;;;;;;;;;;;;;;15.80;84.15;100961.75;5032387;28;987;-66
2022/10/31 09:58:41;;;;;;;;;;;;;;;15.80;84.25;100953.47;5032457;28;1955;-65
2022/10/31 10:01:14;;;;;;;;;;;;;;;15.83;84.13;100952.84;5034609;28;1308;-65
2022/10/31 10:03:42;;;;;;;;;;;;;;;15.84;84.32;100959.19;5036277;28;970;-65
2022/10/31 10:06:16;;;;;;;;;;;;;;;15.84;84.19;100950.91;5035788;28;793;-65
2022/10/31 10:08:42;;;;;;;;;;;;;;;15.83;84.15;100950.06;5035988;28;1019;-66
2022/10/31 10:11:10;;;;;;;;;;;;;;;15.84;83.97;100956.41;5035840;28;1306;-66
2022/10/31 10:13:44;;;;;;;;;;;;;;;15.84;84.04;100953.66;5035963;28;975;-65
2022/10/31 10:16:21;;;;;;;;;;;;;;;15.86;84.30;100945.91;5035613;28;813;-66
2022/10/31 10:19:05;;;;;;;;;;;;;;;15.87;84.25;100942.00;5035776;28;892;-66
2022/10/31 10:21:32;;;;;;;;;;;;;;;15.88;84.52;100949.19;5035833;28;1042;-65
2022/10/31 10:24:03;;;;;;;;;;;;;;;15.89;84.15;100950.81;5035723;28;762;-66
2022/10/31 10:26:34;;;;;;;;;;;;;;;15.91;84.56;100950.53;5035525;28;1015;-65
2022/10/31 10:29:11;;;;;;;;;;;;;;;15.92;84.15;100944.66;5035522;28;1214;-65
2022/10/31 10:31:39;;;;;;;;;;;;;;;15.91;84.59;100945.78;5035584;28;1023;-66
2022/10/31 10:34:16;;;;;;;;;;;;;;;15.93;84.56;100945.50;5035501;28;968;-65
2022/10/31 10:36:45;;;;;;;;;;;;;;;15.94;84.15;100936.09;5035309;28;1965;-66
2022/10/31 10:39:20;;;;;;;;;;;;;;;15.95;84.30;100930.25;5035455;28;1200;-65
2022/10/31 10:43:18;;;;;;;;;;;;;;;15.96;84.39;100928.31;5035335;28;834;-65
2022/10/31 10:50:05;;;;;;;;;;;;;;;16.06;84.10;100919.84;5034950;28;1280;-66
2022/10/31 10:52:39;;;;;;;;;;;;;;;16.07;84.37;100914.03;5033886;28;1492;-65
2022/10/31 10:55:23;;;;;;;;;;;;;;;16.05;84.64;100910.75;5035219;28;841;-65
2022/10/31 10:57:54;;;;;;;;;;;;;;;16.08;84.22;100914.81;5034801;28;1894;-66
2022/10/31 11:00:40;;;;;;;;;;;;;;;16.07;84.24;100894.69;5034853;28;1292;-66
2022/10/31 11:03:05;;;;;;;;;;;;;;;16.06;84.45;100898.56;5032431;28;1816;-65
2022/10/31 11:05:30;;;;;;;;;;;;;;;16.10;84.55;100896.81;5024024;28;2197;-65
2022/10/31 11:07:55;;;;;;;;;;;;;;;16.25;84.55;100890.97;5030491;28;1892;-65
2022/10/31 11:10:21;;;;;;;;;;;;;;;16.38;84.07;100894.03;5032035;28;1927;-66
2022/10/31 11:13:06;;;;;;;;;;;;;;;16.48;83.71;100883.56;5031449;28;1997;-66
2022/10/31 11:15:34;;;;;;;;;;;;;;;16.49;84.19;100887.97;5016344;28;1750;-66
2022/10/31 11:18:00;;;;;;;;;;;;;;;16.47;83.72;100879.19;5029156;28;1939;-66
2022/10/31 11:20:34;;;;;;;;;;;;;;;16.46;84.11;100876.72;5031115;28;1639;-66
2022/10/31 11:23:04;;;;;;;;;;;;;;;16.46;84.47;100873.97;5033805;28;1701;-66
2022/10/31 11:25:29;;;;;;;;;;;;;;;16.49;84.25;100873.34;5033066;28;1710;-66
2022/10/31 11:28:02;;;;;;;;;;;;;;;16.50;84.20;100873.00;5034294;28;1537;-66
2022/10/31 11:30:27;;;;;;;;;;;;;;;16.51;84.18;100869.13;5034354;28;1201;-66
2022/10/31 11:32:53;;;;;;;;;;;;;;;16.53;83.95;100860.53;5033683;28;1622;-66
2022/10/31 11:35:20;;;;;;;;;;;;;;;16.63;85.19;100855.63;5026248;28;2614;-65
2022/10/31 11:37:46;;;;;;;;;;;;;;;16.70;83.93;100854.34;5033884;28;1947;-65
2022/10/31 11:40:16;;;;;;;;;;;;;;;16.67;84.74;100855.81;5033173;28;1953;-65
2022/10/31 11:42:42;;;;;;;;;;;;;;;16.66;85.40;100850.59;5034338;28;1671;-66
2022/10/31 11:45:14;;;;;;;;;;;;;;;16.65;84.84;100833.19;5030972;28;2124;-66
2022/10/31 11:47:41;;;;;;;;;;;;;;;16.66;84.46;100845.91;5029660;28;1608;-66
2022/10/31 11:50:11;;;;;;;;;;;;;;;16.69;84.39;100839.72;5028759;28;2194;-65
2022/10/31 11:52:38;;;;;;;;;;;;;;;16.71;85.39;100837.47;5024739;28;2035;-65
2022/10/31 11:55:09;;;;;;;;;;;;;;;16.71;84.48;100833.88;5027774;28;1930;-65
2022/10/31 11:57:48;;;;;;;;;;;;;;;16.69;84.92;100836.13;5033440;28;1898;-65
2022/10/31 12:00:23;;;;;;;;;;;;;;;16.67;84.95;100830.13;5033255;28;1445;-65
2022/10/31 12:02:48;;;;;;;;;;;;;;;16.65;84.96;100827.69;5031776;28;1863;-65
2022/10/31 12:05:16;;;;;;;;;;;;;;;16.64;84.91;100821.31;5031910;28;1900;-65
2022/10/31 12:07:41;;;;;;;;;;;;;;;16.65;85.28;100813.84;5031794;28;1352;-66
2022/10/31 12:10:11;;;;;;;;;;;;;;;16.63;85.69;100816.94;5033695;28;1217;-66
2022/10/31 12:12:45;;;;;;;;;;;;;;;16.63;85.03;100813.34;5027739;28;1937;-65
2022/10/31 12:15:29;;;;;;;;;;;;;;;16.63;85.46;100799.53;5033766;28;1552;-65
2022/10/31 12:18:02;;;;;;;;;;;;;;;16.64;85.61;100793.69;5033244;28;1957;-65
2022/10/31 12:20:30;;;;;;;;;;;;;;;16.64;85.26;100795.63;5030300;28;1490;-65
2022/10/31 12:23:19;;;;;;;;;;;;;;;16.64;85.07;100787.34;5028804;28;1889;-66
2022/10/31 12:25:51;;;;;;;;;;;;;;;16.64;85.09;100777.09;5030498;28;1838;-65
2022/10/31 12:28:25;;;;;;;;;;;;;;;16.63;84.81;100777.41;5030586;28;2038;-65
2022/10/31 12:31:12;;;;;;;;;;;;;;;16.64;85.11;100777.09;5025540;28;2087;-66
2022/10/31 12:33:47;;;;;;;;;;;;;;;16.65;85.56;100766.88;5029894;28;2324;-65
2022/10/31 12:36:18;;;;;;;;;;;;;;;16.63;84.92;100764.41;5032324;28;1448;-66
2022/10/31 12:38:52;;;;;;;;;;;;;;;16.64;85.35;100755.00;5030994;28;1894;-66
2022/10/31 12:41:28;;;;;;;;;;;;;;;16.68;85.43;100746.88;5030574;28;1862;-65
2022/10/31 12:43:59;;;;;;;;;;;;;;;16.72;84.46;100750.66;5030890;28;2046;-66
2022/10/31 12:46:39;;;;;;;;;;;;;;;16.75;84.62;100741.75;5031924;28;1780;-66
2022/10/31 12:49:13;;;;;;;;;;;;;;;16.77;84.60;100744.97;5025936;28;1950;-65
2022/10/31 12:51:47;;;;;;;;;;;;;;;16.79;85.16;100739.97;5031251;28;2028;-65
2022/10/31 12:54:34;;;;;;;;;;;;;;;16.81;84.53;100734.94;5028017;28;1564;-66
2022/10/31 12:57:18;;;;;;;;;;;;;;;16.84;85.37;100725.19;5030671;28;1957;-65
2022/10/31 12:59:49;;;;;;;;;;;;;;;16.86;85.40;100720.16;5029929;28;2169;-66